sensor_id;sensor_type;location;lat;lon;timestamp;temperature;humidity
80779;SHT30;70170;47.856;10.956;2023-07-30T00:01:05;15.47;97.16
80779;SHT30;70170;47.856;10.956;2023-07-30T00:03:30;15.47;97.47
80779;SHT30;70170;47.856;10.956;2023-07-30T00:05:56;15.53;97.05
80779;SHT30;70170;47.856;10.956;2023-07-30T00:08:21;15.73;95.76
80779;SHT30;70170;47.856;10.956;2023-07-30T00:10:47;15.89;94.53
80779;SHT30;70170;47.856;10.956;2023-07-30T00:13:12;15.89;94.86
80779;SHT30;70170;47.856;10.956;2023-07-30T00:15:37;16.01;94.02
80779;SHT30;70170;47.856;10.956;2023-07-30T00:18:03;16.09;93.79
80779;SHT30;70170;47.856;10.956;2023-07-30T00:20:28;16.08;93.57
80779;SHT30;70170;47.856;10.956;2023-07-30T00:22:53;16.09;93.66
80779;SHT30;70170;47.856;10.956;2023-07-30T00:25:19;16.17;93.46
80779;SHT30;70170;47.856;10.956;2023-07-30T00:27:44;16.24;93.10
80779;SHT30;70170;47.856;10.956;2023-07-30T00:30:10;16.17;93.31
80779;SHT30;70170;47.856;10.956;2023-07-30T00:32:35;16.14;93.61
80779;SHT30;70170;47.856;10.956;2023-07-30T00:35:00;16.18;93.15
80779;SHT30;70170;47.856;10.956;2023-07-30T00:37:26;16.22;92.79
80779;SHT30;70170;47.856;10.956;2023-07-30T00:39:51;16.26;92.51
80779;SHT30;70170;47.856;10.956;2023-07-30T00:42:16;16.21;92.82
80779;SHT30;70170;47.856;10.956;2023-07-30T00:44:42;16.12;93.24
80779;SHT30;70170;47.856;10.956;2023-07-30T00:47:07;16.14;93.27
80779;SHT30;70170;47.856;10.956;2023-07-30T00:49:32;16.08;93.49
80779;SHT30;70170;47.856;10.956;2023-07-30T00:51:58;16.07;93.98
80779;SHT30;70170;47.856;10.956;2023-07-30T00:54:24;15.96;94.23
80779;SHT30;70170;47.856;10.956;2023-07-30T00:56:51;15.91;94.38
80779;SHT30;70170;47.856;10.956;2023-07-30T00:59:18;16.08;93.68
80779;SHT30;70170;47.856;10.956;2023-07-30T01:01:46;16.05;93.96
80779;SHT30;70170;47.856;10.956;2023-07-30T01:04:13;16.25;93.08
80779;SHT30;70170;47.856;10.956;2023-07-30T01:06:39;16.46;92.15
80779;SHT30;70170;47.856;10.956;2023-07-30T01:09:04;16.44;92.46
80779;SHT30;70170;47.856;10.956;2023-07-30T01:11:29;16.41;92.36
80779;SHT30;70170;47.856;10.956;2023-07-30T01:13:55;16.41;92.46
80779;SHT30;70170;47.856;10.956;2023-07-30T01:16:22;16.42;92.38
80779;SHT30;70170;47.856;10.956;2023-07-30T01:18:47;16.39;92.51
80779;SHT30;70170;47.856;10.956;2023-07-30T01:21:12;16.38;92.61
80779;SHT30;70170;47.856;10.956;2023-07-30T01:23:37;16.45;92.31
80779;SHT30;70170;47.856;10.956;2023-07-30T01:26:12;16.42;92.49
80779;SHT30;70170;47.856;10.956;2023-07-30T01:28:44;16.45;92.50
80779;SHT30;70170;47.856;10.956;2023-07-30T01:31:14;16.51;91.94
80779;SHT30;70170;47.856;10.956;2023-07-30T01:33:41;16.62;91.39
80779;SHT30;70170;47.856;10.956;2023-07-30T01:36:08;16.67;91.31
80779;SHT30;70170;47.856;10.956;2023-07-30T01:38:36;16.69;91.21
80779;SHT30;70170;47.856;10.956;2023-07-30T01:41:02;16.64;91.55
80779;SHT30;70170;47.856;10.956;2023-07-30T01:43:28;16.59;91.72
80779;SHT30;70170;47.856;10.956;2023-07-30T01:45:53;16.74;91.13
80779;SHT30;70170;47.856;10.956;2023-07-30T01:48:18;16.81;90.56
80779;SHT30;70170;47.856;10.956;2023-07-30T01:50:44;16.91;90.07
80779;SHT30;70170;47.856;10.956;2023-07-30T01:53:12;16.98;89.85
80779;SHT30;70170;47.856;10.956;2023-07-30T01:55:37;16.97;90.18
80779;SHT30;70170;47.856;10.956;2023-07-30T01:58:04;16.94;90.15
80779;SHT30;70170;47.856;10.956;2023-07-30T02:00:29;17.00;89.60
80779;SHT30;70170;47.856;10.956;2023-07-30T02:02:55;17.14;88.85
80779;SHT30;70170;47.856;10.956;2023-07-30T02:05:20;17.21;88.59
80779;SHT30;70170;47.856;10.956;2023-07-30T02:07:45;17.17;89.06
80779;SHT30;70170;47.856;10.956;2023-07-30T02:10:11;17.18;88.76
80779;SHT30;70170;47.856;10.956;2023-07-30T02:12:36;17.03;89.05
80779;SHT30;70170;47.856;10.956;2023-07-30T02:15:01;17.00;89.37
80779;SHT30;70170;47.856;10.956;2023-07-30T02:17:27;16.90;89.61
80779;SHT30;70170;47.856;10.956;2023-07-30T02:19:52;16.77;90.15
80779;SHT30;70170;47.856;10.956;2023-07-30T02:22:17;16.67;90.35
80779;SHT30;70170;47.856;10.956;2023-07-30T02:24:43;16.85;89.54
80779;SHT30;70170;47.856;10.956;2023-07-30T02:27:08;16.73;90.02
80779;SHT30;70170;47.856;10.956;2023-07-30T02:29:33;16.83;89.45
80779;SHT30;70170;47.856;10.956;2023-07-30T02:31:58;16.81;89.41
80779;SHT30;70170;47.856;10.956;2023-07-30T02:34:24;16.76;89.82
80779;SHT30;70170;47.856;10.956;2023-07-30T02:36:50;16.63;90.49
80779;SHT30;70170;47.856;10.956;2023-07-30T02:39:15;16.60;90.53
80779;SHT30;70170;47.856;10.956;2023-07-30T02:41:40;16.53;90.72
80779;SHT30;70170;47.856;10.956;2023-07-30T02:44:06;16.33;91.26
80779;SHT30;70170;47.856;10.956;2023-07-30T02:46:31;16.30;91.38
80779;SHT30;70170;47.856;10.956;2023-07-30T02:48:56;16.36;91.32
80779;SHT30;70170;47.856;10.956;2023-07-30T02:51:22;16.25;91.71
80779;SHT30;70170;47.856;10.956;2023-07-30T02:53:47;16.30;91.68
80779;SHT30;70170;47.856;10.956;2023-07-30T02:56:16;16.38;91.30
80779;SHT30;70170;47.856;10.956;2023-07-30T02:58:42;16.38;91.41
80779;SHT30;70170;47.856;10.956;2023-07-30T03:01:07;16.46;91.12
80779;SHT30;70170;47.856;10.956;2023-07-30T03:03:33;16.36;91.45
80779;SHT30;70170;47.856;10.956;2023-07-30T03:05:59;16.32;91.71
80779;SHT30;70170;47.856;10.956;2023-07-30T03:08:24;16.32;91.57
80779;SHT30;70170;47.856;10.956;2023-07-30T03:10:49;16.22;92.09
80779;SHT30;70170;47.856;10.956;2023-07-30T03:13:14;16.11;92.46
80779;SHT30;70170;47.856;10.956;2023-07-30T03:15:40;16.07;92.69
80779;SHT30;70170;47.856;10.956;2023-07-30T03:18:05;16.00;92.84
80779;SHT30;70170;47.856;10.956;2023-07-30T03:20:30;16.02;92.84
80779;SHT30;70170;47.856;10.956;2023-07-30T03:22:56;16.01;92.90
80779;SHT30;70170;47.856;10.956;2023-07-30T03:25:21;16.07;92.59
80779;SHT30;70170;47.856;10.956;2023-07-30T03:27:46;15.98;92.85
80779;SHT30;70170;47.856;10.956;2023-07-30T03:30:11;16.02;92.78
80779;SHT30;70170;47.856;10.956;2023-07-30T03:32:37;15.97;93.05
80779;SHT30;70170;47.856;10.956;2023-07-30T03:35:02;15.89;93.29
80779;SHT30;70170;47.856;10.956;2023-07-30T03:37:27;15.90;93.40
80779;SHT30;70170;47.856;10.956;2023-07-30T03:39:53;15.93;93.09
80779;SHT30;70170;47.856;10.956;2023-07-30T03:42:19;15.81;93.51
80779;SHT30;70170;47.856;10.956;2023-07-30T03:44:44;15.80;93.74
80779;SHT30;70170;47.856;10.956;2023-07-30T03:47:09;15.69;94.19
80779;SHT30;70170;47.856;10.956;2023-07-30T03:49:34;15.71;94.10
80779;SHT30;70170;47.856;10.956;2023-07-30T03:52:00;15.66;94.30
80779;SHT30;70170;47.856;10.956;2023-07-30T03:54:25;15.60;94.49
80779;SHT30;70170;47.856;10.956;2023-07-30T03:56:50;15.53;94.68
80779;SHT30;70170;47.856;10.956;2023-07-30T03:59:16;15.43;94.96
80779;SHT30;70170;47.856;10.956;2023-07-30T04:01:41;15.43;95.18
80779;SHT30;70170;47.856;10.956;2023-07-30T04:04:06;15.35;95.32
80779;SHT30;70170;47.856;10.956;2023-07-30T04:06:31;15.34;95.57
80779;SHT30;70170;47.856;10.956;2023-07-30T04:08:57;15.35;95.40
80779;SHT30;70170;47.856;10.956;2023-07-30T04:11:22;15.36;95.50
80779;SHT30;70170;47.856;10.956;2023-07-30T04:13:47;15.39;95.55
80779;SHT30;70170;47.856;10.956;2023-07-30T04:16:13;15.50;95.17
80779;SHT30;70170;47.856;10.956;2023-07-30T04:18:38;15.57;94.94
80779;SHT30;70170;47.856;10.956;2023-07-30T04:21:03;15.54;94.99
80779;SHT30;70170;47.856;10.956;2023-07-30T04:23:28;15.69;94.62
80779;SHT30;70170;47.856;10.956;2023-07-30T04:25:54;15.66;94.57
80779;SHT30;70170;47.856;10.956;2023-07-30T04:28:19;15.96;93.69
80779;SHT30;70170;47.856;10.956;2023-07-30T04:30:44;16.32;92.17
80779;SHT30;70170;47.856;10.956;2023-07-30T04:33:12;16.74;90.75
80779;SHT30;70170;47.856;10.956;2023-07-30T04:35:37;17.03;89.70
80779;SHT30;70170;47.856;10.956;2023-07-30T04:38:02;17.25;89.09
80779;SHT30;70170;47.856;10.956;2023-07-30T04:40:29;17.43;88.35
80779;SHT30;70170;47.856;10.956;2023-07-30T04:42:54;17.47;88.14
80779;SHT30;70170;47.856;10.956;2023-07-30T04:45:19;17.62;87.64
80779;SHT30;70170;47.856;10.956;2023-07-30T04:47:45;17.69;87.31
80779;SHT30;70170;47.856;10.956;2023-07-30T04:50:10;17.74;87.17
80779;SHT30;70170;47.856;10.956;2023-07-30T04:52:35;17.82;86.81
80779;SHT30;70170;47.856;10.956;2023-07-30T04:55:00;17.96;86.54
80779;SHT30;70170;47.856;10.956;2023-07-30T04:57:26;17.98;86.36
80779;SHT30;70170;47.856;10.956;2023-07-30T04:59:51;18.07;86.24
80779;SHT30;70170;47.856;10.956;2023-07-30T05:02:17;18.19;85.75
80779;SHT30;70170;47.856;10.956;2023-07-30T05:04:42;18.27;85.61
80779;SHT30;70170;47.856;10.956;2023-07-30T05:07:07;18.22;85.40
80779;SHT30;70170;47.856;10.956;2023-07-30T05:09:33;18.31;85.26
80779;SHT30;70170;47.856;10.956;2023-07-30T05:11:58;18.45;85.06
80779;SHT30;70170;47.856;10.956;2023-07-30T05:14:24;18.52;84.70
80779;SHT30;70170;47.856;10.956;2023-07-30T05:16:49;18.56;84.57
80779;SHT30;70170;47.856;10.956;2023-07-30T05:19:15;18.67;84.49
80779;SHT30;70170;47.856;10.956;2023-07-30T05:21:41;18.93;83.79
80779;SHT30;70170;47.856;10.956;2023-07-30T05:24:07;19.03;83.25
80779;SHT30;70170;47.856;10.956;2023-07-30T05:26:32;19.10;83.21
80779;SHT30;70170;47.856;10.956;2023-07-30T05:28:57;19.12;83.26
80779;SHT30;70170;47.856;10.956;2023-07-30T05:31:23;19.15;83.17
80779;SHT30;70170;47.856;10.956;2023-07-30T05:33:48;19.38;83.08
80779;SHT30;70170;47.856;10.956;2023-07-30T05:36:13;19.39;82.99
80779;SHT30;70170;47.856;10.956;2023-07-30T05:38:39;19.31;82.67
80779;SHT30;70170;47.856;10.956;2023-07-30T05:41:04;19.61;82.45
80779;SHT30;70170;47.856;10.956;2023-07-30T05:43:29;19.80;81.44
80779;SHT30;70170;47.856;10.956;2023-07-30T05:45:54;19.84;81.55
80779;SHT30;70170;47.856;10.956;2023-07-30T05:48:20;19.87;81.44
80779;SHT30;70170;47.856;10.956;2023-07-30T05:50:45;19.80;81.46
80779;SHT30;70170;47.856;10.956;2023-07-30T05:53:10;19.69;81.45
80779;SHT30;70170;47.856;10.956;2023-07-30T05:55:36;19.80;81.64
80779;SHT30;70170;47.856;10.956;2023-07-30T05:58:01;19.87;81.44
80779;SHT30;70170;47.856;10.956;2023-07-30T06:00:26;20.01;81.15
80779;SHT30;70170;47.856;10.956;2023-07-30T06:02:51;20.10;80.84
80779;SHT30;70170;47.856;10.956;2023-07-30T06:05:17;20.29;80.39
80779;SHT30;70170;47.856;10.956;2023-07-30T06:07:42;20.49;80.19
80779;SHT30;70170;47.856;10.956;2023-07-30T06:10:08;20.48;79.76
80779;SHT30;70170;47.856;10.956;2023-07-30T06:12:33;20.49;79.62
80779;SHT30;70170;47.856;10.956;2023-07-30T06:14:58;20.44;79.64
80779;SHT30;70170;47.856;10.956;2023-07-30T06:17:24;20.75;79.76
80779;SHT30;70170;47.856;10.956;2023-07-30T06:19:49;20.82;79.08
80779;SHT30;70170;47.856;10.956;2023-07-30T06:22:14;21.01;78.12
80779;SHT30;70170;47.856;10.956;2023-07-30T06:24:39;21.21;78.17
80779;SHT30;70170;47.856;10.956;2023-07-30T06:27:05;21.34;78.25
80779;SHT30;70170;47.856;10.956;2023-07-30T06:29:31;21.35;77.13
80779;SHT30;70170;47.856;10.956;2023-07-30T06:31:56;21.37;76.92
80779;SHT30;70170;47.856;10.956;2023-07-30T06:34:21;21.71;76.90
80779;SHT30;70170;47.856;10.956;2023-07-30T06:36:46;21.41;77.01
80779;SHT30;70170;47.856;10.956;2023-07-30T06:39:12;21.01;77.86
80779;SHT30;70170;47.856;10.956;2023-07-30T06:41:37;21.31;78.00
80779;SHT30;70170;47.856;10.956;2023-07-30T06:44:02;21.59;76.98
80779;SHT30;70170;47.856;10.956;2023-07-30T06:46:28;20.97;76.92
80779;SHT30;70170;47.856;10.956;2023-07-30T06:48:53;20.59;77.74
80779;SHT30;70170;47.856;10.956;2023-07-30T06:51:19;21.27;76.48
80779;SHT30;70170;47.856;10.956;2023-07-30T06:53:45;21.00;77.28
80779;SHT30;70170;47.856;10.956;2023-07-30T06:56:10;20.71;77.62
80779;SHT30;70170;47.856;10.956;2023-07-30T06:58:35;20.73;78.76
80779;SHT30;70170;47.856;10.956;2023-07-30T07:01:01;20.52;78.50
80779;SHT30;70170;47.856;10.956;2023-07-30T07:03:26;20.61;78.57
80779;SHT30;70170;47.856;10.956;2023-07-30T07:05:55;20.90;77.39
80779;SHT30;70170;47.856;10.956;2023-07-30T07:08:21;21.21;76.72
80779;SHT30;70170;47.856;10.956;2023-07-30T07:10:46;21.90;75.36
80779;SHT30;70170;47.856;10.956;2023-07-30T07:13:12;21.73;75.29
80779;SHT30;70170;47.856;10.956;2023-07-30T07:15:43;22.40;74.12
80779;SHT30;70170;47.856;10.956;2023-07-30T07:18:09;22.49;72.91
80779;SHT30;70170;47.856;10.956;2023-07-30T07:20:35;22.24;72.44
80779;SHT30;70170;47.856;10.956;2023-07-30T07:23:01;22.30;72.14
80779;SHT30;70170;47.856;10.956;2023-07-30T07:25:26;22.48;71.28
80779;SHT30;70170;47.856;10.956;2023-07-30T07:27:52;22.77;71.05
80779;SHT30;70170;47.856;10.956;2023-07-30T07:30:17;23.00;70.43
80779;SHT30;70170;47.856;10.956;2023-07-30T07:32:42;23.03;70.37
80779;SHT30;70170;47.856;10.956;2023-07-30T07:35:08;23.44;69.38
80779;SHT30;70170;47.856;10.956;2023-07-30T07:37:33;22.49;71.10
80779;SHT30;70170;47.856;10.956;2023-07-30T07:39:59;21.90;73.16
80779;SHT30;70170;47.856;10.956;2023-07-30T07:42:24;21.61;72.89
80779;SHT30;70170;47.856;10.956;2023-07-30T07:44:50;21.44;72.99
80779;SHT30;70170;47.856;10.956;2023-07-30T07:47:15;21.12;74.13
80779;SHT30;70170;47.856;10.956;2023-07-30T07:49:41;20.92;75.43
80779;SHT30;70170;47.856;10.956;2023-07-30T07:52:06;20.75;76.63
80779;SHT30;70170;47.856;10.956;2023-07-30T07:54:32;20.75;75.59
80779;SHT30;70170;47.856;10.956;2023-07-30T07:56:57;21.37;74.69
80779;SHT30;70170;47.856;10.956;2023-07-30T07:59:23;21.71;73.37
80779;SHT30;70170;47.856;10.956;2023-07-30T08:01:49;21.79;72.27
80779;SHT30;70170;47.856;10.956;2023-07-30T08:04:14;22.04;71.74
80779;SHT30;70170;47.856;10.956;2023-07-30T08:06:39;22.73;71.06
80779;SHT30;70170;47.856;10.956;2023-07-30T08:09:05;22.41;71.02
80779;SHT30;70170;47.856;10.956;2023-07-30T08:11:30;22.20;71.42
80779;SHT30;70170;47.856;10.956;2023-07-30T08:13:55;22.25;71.82
80779;SHT30;70170;47.856;10.956;2023-07-30T08:16:22;21.52;72.20
80779;SHT30;70170;47.856;10.956;2023-07-30T08:18:47;21.04;73.72
80779;SHT30;70170;47.856;10.956;2023-07-30T08:21:13;20.99;73.18
80779;SHT30;70170;47.856;10.956;2023-07-30T08:23:38;21.18;73.19
80779;SHT30;70170;47.856;10.956;2023-07-30T08:26:03;20.94;73.54
80779;SHT30;70170;47.856;10.956;2023-07-30T08:28:29;21.14;73.65
80779;SHT30;70170;47.856;10.956;2023-07-30T08:30:59;22.45;71.11
80779;SHT30;70170;47.856;10.956;2023-07-30T08:33:26;23.21;69.23
80779;SHT30;70170;47.856;10.956;2023-07-30T08:35:55;22.88;68.35
80779;SHT30;70170;47.856;10.956;2023-07-30T08:38:20;22.55;69.63
80779;SHT30;70170;47.856;10.956;2023-07-30T08:40:45;22.48;68.89
80779;SHT30;70170;47.856;10.956;2023-07-30T08:43:20;22.52;68.39
80779;SHT30;70170;47.856;10.956;2023-07-30T08:45:45;22.41;69.67
80779;SHT30;70170;47.856;10.956;2023-07-30T08:48:11;22.00;71.24
80779;SHT30;70170;47.856;10.956;2023-07-30T08:50:37;22.79;68.66
80779;SHT30;70170;47.856;10.956;2023-07-30T08:53:03;23.50;68.47
80779;SHT30;70170;47.856;10.956;2023-07-30T08:55:29;23.82;66.61
80779;SHT30;70170;47.856;10.956;2023-07-30T08:57:57;24.36;64.78
80779;SHT30;70170;47.856;10.956;2023-07-30T09:00:25;24.51;64.57
80779;SHT30;70170;47.856;10.956;2023-07-30T09:02:54;24.40;64.19
80779;SHT30;70170;47.856;10.956;2023-07-30T09:05:20;24.41;64.80
80779;SHT30;70170;47.856;10.956;2023-07-30T09:07:46;24.41;64.27
80779;SHT30;70170;47.856;10.956;2023-07-30T09:10:12;24.10;64.46
80779;SHT30;70170;47.856;10.956;2023-07-30T09:12:38;24.47;64.38
80779;SHT30;70170;47.856;10.956;2023-07-30T09:15:04;24.08;62.25
80779;SHT30;70170;47.856;10.956;2023-07-30T09:17:30;24.21;61.31
80779;SHT30;70170;47.856;10.956;2023-07-30T09:19:59;24.00;63.36
80779;SHT30;70170;47.856;10.956;2023-07-30T09:22:28;24.16;63.04
80779;SHT30;70170;47.856;10.956;2023-07-30T09:24:54;23.85;63.98
80779;SHT30;70170;47.856;10.956;2023-07-30T09:27:21;23.41;64.25
80779;SHT30;70170;47.856;10.956;2023-07-30T09:29:57;23.45;64.23
80779;SHT30;70170;47.856;10.956;2023-07-30T09:32:30;23.81;64.06
80779;SHT30;70170;47.856;10.956;2023-07-30T09:35:06;23.76;62.24
80779;SHT30;70170;47.856;10.956;2023-07-30T09:37:41;23.59;63.62
80779;SHT30;70170;47.856;10.956;2023-07-30T09:40:10;23.57;63.34
80779;SHT30;70170;47.856;10.956;2023-07-30T09:42:38;23.76;62.99
80779;SHT30;70170;47.856;10.956;2023-07-30T09:45:05;23.64;62.57
80779;SHT30;70170;47.856;10.956;2023-07-30T09:47:32;23.85;61.27
80779;SHT30;70170;47.856;10.956;2023-07-30T09:49:59;24.31;62.19
80779;SHT30;70170;47.856;10.956;2023-07-30T09:52:24;24.55;61.86
80779;SHT30;70170;47.856;10.956;2023-07-30T09:54:51;24.31;60.96
80779;SHT30;70170;47.856;10.956;2023-07-30T09:57:17;23.79;62.10
80779;SHT30;70170;47.856;10.956;2023-07-30T09:59:42;23.82;61.75
80779;SHT30;70170;47.856;10.956;2023-07-30T10:02:09;23.83;62.36
80779;SHT30;70170;47.856;10.956;2023-07-30T10:04:39;24.30;60.87
80779;SHT30;70170;47.856;10.956;2023-07-30T10:07:10;24.91;61.32
80779;SHT30;70170;47.856;10.956;2023-07-30T10:09:39;25.41;59.55
80779;SHT30;70170;47.856;10.956;2023-07-30T10:12:11;24.76;60.66
80779;SHT30;70170;47.856;10.956;2023-07-30T10:14:37;23.96;63.09
80779;SHT30;70170;47.856;10.956;2023-07-30T10:17:03;23.74;63.53
80779;SHT30;70170;47.856;10.956;2023-07-30T10:19:29;23.34;63.11
80779;SHT30;70170;47.856;10.956;2023-07-30T10:24:39;24.14;62.50
80779;SHT30;70170;47.856;10.956;2023-07-30T10:27:08;24.30;62.42
80779;SHT30;70170;47.856;10.956;2023-07-30T10:29:35;24.63;61.71
80779;SHT30;70170;47.856;10.956;2023-07-30T10:32:01;24.40;62.73
80779;SHT30;70170;47.856;10.956;2023-07-30T10:34:44;23.89;62.25
80779;SHT30;70170;47.856;10.956;2023-07-30T10:37:09;23.30;63.47
80779;SHT30;70170;47.856;10.956;2023-07-30T10:39:35;23.51;63.75
80779;SHT30;70170;47.856;10.956;2023-07-30T10:42:00;23.76;63.33
80779;SHT30;70170;47.856;10.956;2023-07-30T10:44:33;23.79;63.91
80779;SHT30;70170;47.856;10.956;2023-07-30T10:47:00;23.55;64.06
80779;SHT30;70170;47.856;10.956;2023-07-30T10:49:26;23.24;64.74
80779;SHT30;70170;47.856;10.956;2023-07-30T10:51:53;23.44;64.63
80779;SHT30;70170;47.856;10.956;2023-07-30T10:54:18;23.98;63.76
80779;SHT30;70170;47.856;10.956;2023-07-30T10:56:44;24.64;63.97
80779;SHT30;70170;47.856;10.956;2023-07-30T10:59:11;25.12;61.83
80779;SHT30;70170;47.856;10.956;2023-07-30T11:01:45;24.96;62.45
80779;SHT30;70170;47.856;10.956;2023-07-30T11:04:16;24.91;60.98
80779;SHT30;70170;47.856;10.956;2023-07-30T11:06:49;24.85;60.17
80779;SHT30;70170;47.856;10.956;2023-07-30T11:09:18;25.05;59.42
80779;SHT30;70170;47.856;10.956;2023-07-30T11:11:45;25.10;60.09
80779;SHT30;70170;47.856;10.956;2023-07-30T11:14:15;25.10;60.00
80779;SHT30;70170;47.856;10.956;2023-07-30T11:16:50;24.99;58.53
80779;SHT30;70170;47.856;10.956;2023-07-30T11:19:16;25.43;59.58
80779;SHT30;70170;47.856;10.956;2023-07-30T11:21:45;25.67;58.77
80779;SHT30;70170;47.856;10.956;2023-07-30T11:24:11;24.98;60.12
80779;SHT30;70170;47.856;10.956;2023-07-30T11:26:36;24.27;62.60
80779;SHT30;70170;47.856;10.956;2023-07-30T11:29:17;23.99;62.30
80779;SHT30;70170;47.856;10.956;2023-07-30T11:31:44;23.99;62.79
80779;SHT30;70170;47.856;10.956;2023-07-30T11:34:10;24.08;63.09
80779;SHT30;70170;47.856;10.956;2023-07-30T11:36:36;24.61;61.81
80779;SHT30;70170;47.856;10.956;2023-07-30T11:39:01;25.16;60.60
80779;SHT30;70170;47.856;10.956;2023-07-30T11:41:27;25.70;60.78
80779;SHT30;70170;47.856;10.956;2023-07-30T11:43:54;25.54;59.62
80779;SHT30;70170;47.856;10.956;2023-07-30T11:46:19;26.03;58.65
80779;SHT30;70170;47.856;10.956;2023-07-30T11:48:48;25.71;58.85
80779;SHT30;70170;47.856;10.956;2023-07-30T11:53:58;26.44;58.07
80779;SHT30;70170;47.856;10.956;2023-07-30T11:56:28;25.70;57.24
80779;SHT30;70170;47.856;10.956;2023-07-30T11:59:02;24.48;59.54
80779;SHT30;70170;47.856;10.956;2023-07-30T12:01:31;24.10;60.56
80779;SHT30;70170;47.856;10.956;2023-07-30T12:03:58;23.81;61.83
80779;SHT30;70170;47.856;10.956;2023-07-30T12:06:24;23.14;63.58
80779;SHT30;70170;47.856;10.956;2023-07-30T12:09:09;24.09;63.43
80779;SHT30;70170;47.856;10.956;2023-07-30T12:11:44;24.51;61.60
80779;SHT30;70170;47.856;10.956;2023-07-30T12:14:09;24.36;61.45
80779;SHT30;70170;47.856;10.956;2023-07-30T12:16:34;23.30;63.43
80779;SHT30;70170;47.856;10.956;2023-07-30T12:19:00;23.13;64.80
80779;SHT30;70170;47.856;10.956;2023-07-30T12:21:25;23.19;64.21
80779;SHT30;70170;47.856;10.956;2023-07-30T12:23:50;23.28;65.00
80779;SHT30;70170;47.856;10.956;2023-07-30T12:26:16;23.93;62.98
80779;SHT30;70170;47.856;10.956;2023-07-30T12:28:41;23.90;62.15
80779;SHT30;70170;47.856;10.956;2023-07-30T12:31:07;23.74;62.24
80779;SHT30;70170;47.856;10.956;2023-07-30T12:33:32;24.02;61.38
80779;SHT30;70170;47.856;10.956;2023-07-30T12:35:57;24.63;59.99
80779;SHT30;70170;47.856;10.956;2023-07-30T12:38:22;23.95;60.84
80779;SHT30;70170;47.856;10.956;2023-07-30T12:40:48;23.47;59.73
80779;SHT30;70170;47.856;10.956;2023-07-30T12:43:16;23.13;61.84
80779;SHT30;70170;47.856;10.956;2023-07-30T12:45:44;23.44;62.70
80779;SHT30;70170;47.856;10.956;2023-07-30T12:48:09;24.48;60.27
80779;SHT30;70170;47.856;10.956;2023-07-30T12:50:40;24.65;57.90
80779;SHT30;70170;47.856;10.956;2023-07-30T12:53:06;25.12;56.39
80779;SHT30;70170;47.856;10.956;2023-07-30T12:55:31;25.13;54.33
80779;SHT30;70170;47.856;10.956;2023-07-30T12:57:56;25.22;55.19
80779;SHT30;70170;47.856;10.956;2023-07-30T13:00:22;25.67;55.69
80779;SHT30;70170;47.856;10.956;2023-07-30T13:02:47;25.08;55.61
80779;SHT30;70170;47.856;10.956;2023-07-30T13:05:12;24.31;56.94
80779;SHT30;70170;47.856;10.956;2023-07-30T13:07:40;25.09;56.68
80779;SHT30;70170;47.856;10.956;2023-07-30T13:10:06;25.13;55.47
80779;SHT30;70170;47.856;10.956;2023-07-30T13:12:33;25.16;56.19
80779;SHT30;70170;47.856;10.956;2023-07-30T13:14:59;25.46;55.14
80779;SHT30;70170;47.856;10.956;2023-07-30T13:17:25;25.54;55.05
80779;SHT30;70170;47.856;10.956;2023-07-30T13:19:50;25.37;55.31
80779;SHT30;70170;47.856;10.956;2023-07-30T13:22:16;25.81;54.82
80779;SHT30;70170;47.856;10.956;2023-07-30T13:24:41;25.78;55.23
80779;SHT30;70170;47.856;10.956;2023-07-30T13:27:06;25.58;55.13
80779;SHT30;70170;47.856;10.956;2023-07-30T13:29:31;24.74;57.30
80779;SHT30;70170;47.856;10.956;2023-07-30T13:31:57;23.86;58.62
80779;SHT30;70170;47.856;10.956;2023-07-30T13:34:22;23.90;58.11
80779;SHT30;70170;47.856;10.956;2023-07-30T13:36:47;24.51;56.23
80779;SHT30;70170;47.856;10.956;2023-07-30T13:39:13;24.95;56.49
80779;SHT30;70170;47.856;10.956;2023-07-30T13:41:38;25.22;55.06
80779;SHT30;70170;47.856;10.956;2023-07-30T13:44:03;25.51;54.28
80779;SHT30;70170;47.856;10.956;2023-07-30T13:46:29;26.05;52.94
80779;SHT30;70170;47.856;10.956;2023-07-30T13:48:54;24.95;55.55
80779;SHT30;70170;47.856;10.956;2023-07-30T13:51:19;24.40;55.75
80779;SHT30;70170;47.856;10.956;2023-07-30T13:53:44;24.93;55.46
80779;SHT30;70170;47.856;10.956;2023-07-30T13:56:10;26.09;55.02
80779;SHT30;70170;47.856;10.956;2023-07-30T13:58:35;26.23;53.35
80779;SHT30;70170;47.856;10.956;2023-07-30T14:01:00;26.15;52.27
80779;SHT30;70170;47.856;10.956;2023-07-30T14:03:26;26.41;50.89
80779;SHT30;70170;47.856;10.956;2023-07-30T14:05:51;25.27;52.82
80779;SHT30;70170;47.856;10.956;2023-07-30T14:08:16;24.37;53.57
80779;SHT30;70170;47.856;10.956;2023-07-30T14:10:42;24.81;54.68
80779;SHT30;70170;47.856;10.956;2023-07-30T14:13:07;25.84;53.62
80779;SHT30;70170;47.856;10.956;2023-07-30T14:15:32;25.50;52.84
80779;SHT30;70170;47.856;10.956;2023-07-30T14:17:58;25.08;52.36
80779;SHT30;70170;47.856;10.956;2023-07-30T14:20:23;25.05;52.96
80779;SHT30;70170;47.856;10.956;2023-07-30T14:22:48;25.57;51.71
80779;SHT30;70170;47.856;10.956;2023-07-30T14:25:14;25.40;52.74
80779;SHT30;70170;47.856;10.956;2023-07-30T14:27:40;24.91;53.09
80779;SHT30;70170;47.856;10.956;2023-07-30T14:30:06;25.15;52.53
80779;SHT30;70170;47.856;10.956;2023-07-30T14:32:31;25.31;51.89
80779;SHT30;70170;47.856;10.956;2023-07-30T14:34:56;25.96;52.14
80779;SHT30;70170;47.856;10.956;2023-07-30T14:37:22;25.86;51.32
80779;SHT30;70170;47.856;10.956;2023-07-30T14:39:47;26.02;50.88
80779;SHT30;70170;47.856;10.956;2023-07-30T14:42:12;25.74;51.25
80779;SHT30;70170;47.856;10.956;2023-07-30T14:44:38;25.72;52.39
80779;SHT30;70170;47.856;10.956;2023-07-30T14:47:04;25.46;51.67
80779;SHT30;70170;47.856;10.956;2023-07-30T14:49:30;25.58;52.12
80779;SHT30;70170;47.856;10.956;2023-07-30T14:51:55;25.58;51.77
80779;SHT30;70170;47.856;10.956;2023-07-30T14:54:21;25.50;51.37
80779;SHT30;70170;47.856;10.956;2023-07-30T14:56:50;25.64;50.47
80779;SHT30;70170;47.856;10.956;2023-07-30T14:59:15;25.09;51.68
80779;SHT30;70170;47.856;10.956;2023-07-30T15:01:40;24.81;51.33
80779;SHT30;70170;47.856;10.956;2023-07-30T15:04:06;24.51;51.96
80779;SHT30;70170;47.856;10.956;2023-07-30T15:06:32;24.98;50.98
80779;SHT30;70170;47.856;10.956;2023-07-30T15:08:57;24.92;50.68
80779;SHT30;70170;47.856;10.956;2023-07-30T15:11:23;24.13;52.11
80779;SHT30;70170;47.856;10.956;2023-07-30T15:13:49;25.03;49.66